createdAt,value
2018-08-07T00:02:05.573Z,5.30
2018-08-07T00:04:33.648Z,5.00
2018-08-07T00:07:01.728Z,5.13
2018-08-07T00:09:29.785Z,4.37
2018-08-07T00:11:57.878Z,4.77
2018-08-07T00:14:26.161Z,4.13
2018-08-07T00:16:54.220Z,4.60
2018-08-07T00:19:22.331Z,4.20
2018-08-07T00:21:50.517Z,4.13
2018-08-07T00:24:18.572Z,9.33
2018-08-07T00:26:46.639Z,3.97
2018-08-07T00:29:14.728Z,4.50
2018-08-07T00:31:42.792Z,6.37
2018-08-07T00:34:10.854Z,3.70
2018-08-07T00:36:38.903Z,4.83
2018-08-07T00:39:09.796Z,4.23
2018-08-07T00:41:37.918Z,4.17
2018-08-07T00:44:05.986Z,4.33
2018-08-07T00:46:34.030Z,6.90
2018-08-07T00:49:02.143Z,3.90
2018-08-07T00:51:30.191Z,4.13
2018-08-07T00:53:58.277Z,4.10
2018-08-07T00:56:26.327Z,4.33
2018-08-07T00:58:54.478Z,6.13
2018-08-07T01:04:15.476Z,4.00
2018-08-07T01:06:43.563Z,4.67
2018-08-07T01:09:12.108Z,4.07
2018-08-07T01:11:40.185Z,4.53
2018-08-07T01:14:08.274Z,4.00
2018-08-07T01:16:36.350Z,4.40
2018-08-07T01:19:04.605Z,4.47
2018-08-07T01:21:32.795Z,6.13
2018-08-07T01:24:00.998Z,4.53
2018-08-07T01:26:29.157Z,4.67
2018-08-07T01:28:57.228Z,4.10
2018-08-07T01:31:25.328Z,4.53
2018-08-07T01:33:53.876Z,4.30
2018-08-07T01:36:21.962Z,4.87
2018-08-07T01:38:50.054Z,4.60
2018-08-07T01:41:18.131Z,4.47
2018-08-07T01:43:46.219Z,5.20
2018-08-07T01:46:14.307Z,4.83
2018-08-07T01:48:42.407Z,4.53
2018-08-07T01:51:10.489Z,4.67
2018-08-07T01:53:38.583Z,4.87
2018-08-07T01:56:06.663Z,7.10
2018-08-07T01:58:34.893Z,4.27
2018-08-07T02:01:02.985Z,4.13
2018-08-07T02:03:31.419Z,4.30
2018-08-07T02:05:59.488Z,5.47
2018-08-07T02:08:27.765Z,4.50
2018-08-07T02:10:55.863Z,4.13
2018-08-07T02:13:23.928Z,4.37
2018-08-07T02:15:52.950Z,4.80
2018-08-07T02:18:21.007Z,4.37
2018-08-07T02:20:49.058Z,4.70
2018-08-07T02:23:17.159Z,5.00
2018-08-07T02:25:45.212Z,3.93
2018-08-07T02:28:13.259Z,4.23
2018-08-07T02:30:41.356Z,5.90
2018-08-07T02:33:09.433Z,4.33
2018-08-07T02:35:37.487Z,4.07
2018-08-07T02:38:05.594Z,4.70
2018-08-07T02:40:33.638Z,3.93
2018-08-07T02:43:01.751Z,4.93
2018-08-07T02:45:29.824Z,4.87
2018-08-07T02:47:57.874Z,5.10
2018-08-07T02:50:25.951Z,4.80
2018-08-07T02:52:53.992Z,4.60
2018-08-07T02:55:22.065Z,4.87
2018-08-07T02:57:50.192Z,5.27
2018-08-07T03:00:21.909Z,4.77
2018-08-07T03:02:50.015Z,6.27
2018-08-07T03:05:18.940Z,5.60
2018-08-07T03:07:47.124Z,5.10
2018-08-07T03:10:15.227Z,6.23
2018-08-07T03:12:43.419Z,5.30
2018-08-07T03:15:14.265Z,4.97
2018-08-07T03:17:43.070Z,5.60
2018-08-07T03:20:11.224Z,6.33
2018-08-07T03:22:39.304Z,5.37
2018-08-07T03:25:08.740Z,4.77
2018-08-07T03:27:36.798Z,4.80
2018-08-07T03:30:07.869Z,5.83
2018-08-07T03:32:36.011Z,5.13
2018-08-07T03:35:04.392Z,9.93
2018-08-07T03:37:32.462Z,5.50
2018-08-07T03:40:00.523Z,4.93
2018-08-07T03:42:28.674Z,4.70
2018-08-07T03:44:56.776Z,6.17
2018-08-07T03:47:24.836Z,4.87
2018-08-07T03:49:52.883Z,5.27
2018-08-07T03:52:21.024Z,5.77
2018-08-07T03:54:49.147Z,5.33
2018-08-07T03:57:17.193Z,5.30
2018-08-07T03:59:45.253Z,4.60
2018-08-07T04:02:13.311Z,5.27
2018-08-07T04:04:41.387Z,5.10
2018-08-07T04:07:09.623Z,5.13
2018-08-07T04:09:37.693Z,4.40
2018-08-07T04:12:05.793Z,6.83
2018-08-07T04:14:33.859Z,6.00
2018-08-07T04:17:01.982Z,5.90
2018-08-07T04:19:30.063Z,5.40
2018-08-07T04:21:58.103Z,5.07
2018-08-07T04:24:26.889Z,7.43
2018-08-07T04:26:55.132Z,5.53
2018-08-07T04:29:23.284Z,5.63
2018-08-07T04:31:51.379Z,7.33
2018-08-07T04:34:19.516Z,5.70
2018-08-07T04:36:47.543Z,5.87
2018-08-07T04:39:15.607Z,5.73
2018-08-07T04:41:43.683Z,6.50
2018-08-07T04:44:11.826Z,4.90
2018-08-07T04:46:39.886Z,5.00
2018-08-07T04:49:07.944Z,6.00
2018-08-07T04:51:36.462Z,5.47
2018-08-07T04:54:04.544Z,6.20
2018-08-07T04:56:32.620Z,7.23
2018-08-07T04:59:00.676Z,5.90
2018-08-07T05:01:28.768Z,5.80
2018-08-07T05:03:56.979Z,8.20
2018-08-07T05:06:25.031Z,5.50
2018-08-07T05:08:53.102Z,5.73
2018-08-07T05:11:21.178Z,5.70
2018-08-07T05:13:49.228Z,6.00
2018-08-07T05:16:17.312Z,5.90
2018-08-07T05:18:45.384Z,5.70
2018-08-07T05:21:13.462Z,5.53
2018-08-07T05:23:41.538Z,6.10
2018-08-07T05:26:09.623Z,4.60
2018-08-07T05:28:37.739Z,4.30
2018-08-07T05:31:05.844Z,5.63
2018-08-07T05:33:34.068Z,6.40
2018-08-07T05:36:02.174Z,8.70
2018-08-07T05:38:30.274Z,5.30
2018-08-07T05:40:58.355Z,7.87
2018-08-07T05:43:26.426Z,4.93
2018-08-07T05:45:54.489Z,6.93
2018-08-07T05:48:22.644Z,6.00
2018-08-07T05:50:50.998Z,5.40
2018-08-07T05:53:18.754Z,7.67
2018-08-07T05:55:46.849Z,8.40
2018-08-07T05:58:14.896Z,7.57
2018-08-07T06:00:42.958Z,6.10
2018-08-07T06:03:11.027Z,4.50
2018-08-07T06:05:39.082Z,4.20
2018-08-07T06:08:07.138Z,5.23
2018-08-07T06:10:35.201Z,10.33
2018-08-07T06:13:03.261Z,5.00
2018-08-07T06:15:31.325Z,5.63
2018-08-07T06:17:59.400Z,4.60
2018-08-07T06:20:27.476Z,4.90
2018-08-07T06:22:55.547Z,7.00
2018-08-07T06:25:23.611Z,4.43
2018-08-07T06:27:51.814Z,5.20
2018-08-07T06:30:20.638Z,5.60
2018-08-07T06:32:49.114Z,5.57
2018-08-07T06:35:17.720Z,6.97
2018-08-07T06:37:45.808Z,5.27
2018-08-07T06:40:14.214Z,6.27
2018-08-07T06:42:42.259Z,6.57
2018-08-07T06:45:11.931Z,6.70
2018-08-07T06:47:40.000Z,6.70
2018-08-07T06:50:13.200Z,6.27
2018-08-07T06:52:41.447Z,6.50
2018-08-07T06:55:10.091Z,8.50
2018-08-07T06:57:38.160Z,6.83
2018-08-07T07:00:10.123Z,6.30
2018-08-07T07:02:38.237Z,6.53
2018-08-07T07:05:06.311Z,7.77
2018-08-07T07:07:34.390Z,6.53
2018-08-07T07:10:02.490Z,7.00
2018-08-07T07:12:30.608Z,6.03
2018-08-07T07:14:58.703Z,10.30
2018-08-07T07:17:26.819Z,6.00
2018-08-07T07:19:54.898Z,5.57
2018-08-07T07:22:22.955Z,5.63
2018-08-07T07:24:51.041Z,7.70
2018-08-07T07:27:19.184Z,7.00
2018-08-07T07:29:47.297Z,6.30
2018-08-07T07:32:15.375Z,6.47
2018-08-07T07:34:43.612Z,5.80
2018-08-07T07:37:11.693Z,5.93
2018-08-07T07:39:39.787Z,6.53
2018-08-07T07:42:07.886Z,7.13
2018-08-07T07:44:35.926Z,6.70
2018-08-07T07:47:04.042Z,6.27
2018-08-07T07:49:32.159Z,5.50
2018-08-07T07:52:00.215Z,6.23
2018-08-07T07:54:28.292Z,6.83
2018-08-07T07:56:56.350Z,7.10
2018-08-07T07:59:24.411Z,5.93
2018-08-07T08:01:52.463Z,6.30
2018-08-07T08:04:20.502Z,5.80
2018-08-07T08:06:48.566Z,6.67
2018-08-07T08:09:16.634Z,6.23
2018-08-07T08:11:44.688Z,6.63
2018-08-07T08:14:12.750Z,5.73
2018-08-07T08:16:40.860Z,6.93
2018-08-07T08:19:09.113Z,7.23
2018-08-07T08:21:37.175Z,6.10
2018-08-07T08:24:05.274Z,6.23
2018-08-07T08:26:33.360Z,6.33
2018-08-07T08:29:01.465Z,5.67
2018-08-07T08:31:29.497Z,6.20
2018-08-07T08:33:57.566Z,6.50
2018-08-07T08:36:25.635Z,5.90
2018-08-07T08:38:53.719Z,6.90
2018-08-07T08:41:21.777Z,6.47
2018-08-07T08:43:49.811Z,6.97
2018-08-07T08:46:17.874Z,6.50
2018-08-07T08:48:45.955Z,5.77
2018-08-07T08:51:14.036Z,7.10
2018-08-07T08:53:42.104Z,6.27
2018-08-07T08:56:10.156Z,6.57
2018-08-07T08:58:38.233Z,6.83
2018-08-07T09:01:06.672Z,6.10
2018-08-07T09:03:34.730Z,5.17
2018-08-07T09:06:02.787Z,6.47
2018-08-07T09:08:30.859Z,6.93
2018-08-07T09:10:59.024Z,6.47
2018-08-07T09:13:27.075Z,6.60
2018-08-07T09:15:55.128Z,7.13
2018-08-07T09:18:23.188Z,6.47
2018-08-07T09:20:51.227Z,6.37
2018-08-07T09:23:19.311Z,6.00
2018-08-07T09:25:47.493Z,7.80
2018-08-07T09:28:15.531Z,10.33
2018-08-07T09:30:43.590Z,7.43
2018-08-07T09:33:11.672Z,6.53
2018-08-07T09:35:39.948Z,5.93
2018-08-07T09:38:08.032Z,7.30
2018-08-07T09:40:36.076Z,5.97
2018-08-07T09:43:04.163Z,5.80
2018-08-07T09:45:33.627Z,6.00
2018-08-07T09:48:02.822Z,6.27
2018-08-07T09:50:30.879Z,5.90
2018-08-07T09:52:58.927Z,6.77
2018-08-07T09:55:26.984Z,7.13
2018-08-07T09:57:55.047Z,5.97
2018-08-07T10:00:28.311Z,6.20
2018-08-07T10:02:59.967Z,6.50
2018-08-07T10:05:29.421Z,6.03
2018-08-07T10:07:57.357Z,6.20
2018-08-07T10:10:25.555Z,7.23
2018-08-07T10:12:53.615Z,8.13
2018-08-07T10:15:21.675Z,6.63
2018-08-07T10:17:49.762Z,6.90
2018-08-07T10:20:17.820Z,6.87
2018-08-07T10:22:45.867Z,6.33
2018-08-07T10:25:16.175Z,5.93
2018-08-07T10:27:45.291Z,6.73
2018-08-07T10:30:17.638Z,7.00
2018-08-07T10:32:45.808Z,6.13
2018-08-07T10:35:14.659Z,6.70
2018-08-07T10:37:43.532Z,7.13
2018-08-07T10:40:13.320Z,6.83
2018-08-07T10:42:41.515Z,6.63
2018-08-07T10:45:12.634Z,5.90
2018-08-07T10:47:41.237Z,8.60
2018-08-07T10:50:12.986Z,6.67
2018-08-07T10:52:41.223Z,6.20
2018-08-07T10:55:09.739Z,5.83
2018-08-07T10:57:38.771Z,6.90
2018-08-07T11:00:11.502Z,6.63
2018-08-07T11:02:39.556Z,5.90
2018-08-07T11:05:07.964Z,5.70
2018-08-07T11:07:36.028Z,6.20
2018-08-07T11:10:04.902Z,6.03
2018-08-07T11:12:33.992Z,23.57
2018-08-07T11:15:02.238Z,9.13
2018-08-07T11:17:35.536Z,6.40
2018-08-07T11:20:03.848Z,5.90
2018-08-07T11:22:31.980Z,7.93
2018-08-07T11:25:00.248Z,5.87
2018-08-07T11:27:28.621Z,6.40
2018-08-07T11:29:56.915Z,6.00
2018-08-07T11:32:30.316Z,5.90
2018-08-07T11:34:59.106Z,6.00
2018-08-07T11:37:29.369Z,5.70
2018-08-07T11:39:58.592Z,7.47
2018-08-07T11:42:26.772Z,6.70
2018-08-07T11:47:31.188Z,5.50
2018-08-07T11:51:25.784Z,7.07
2018-08-07T11:53:53.899Z,6.47
2018-08-07T11:56:22.079Z,8.23
2018-08-07T11:58:50.139Z,6.50
2018-08-07T12:01:18.343Z,6.13
2018-08-07T12:03:46.710Z,5.60
2018-08-07T12:06:17.648Z,7.00
2018-08-07T12:08:46.557Z,7.83
2018-08-07T12:11:17.149Z,7.33
2018-08-07T12:14:12.527Z,7.87
2018-08-07T12:16:40.935Z,7.20
2018-08-07T12:19:14.362Z,8.07
2018-08-07T12:21:49.577Z,8.13
2018-08-07T12:24:17.933Z,7.77
2018-08-07T12:26:47.287Z,7.07
2018-08-07T12:34:50.164Z,5.80
2018-08-07T12:37:24.290Z,6.53
2018-08-07T12:46:46.903Z,6.70
2018-08-07T12:49:16.953Z,6.87
2018-08-07T12:51:45.691Z,6.43
2018-08-07T12:54:14.219Z,6.83
2018-08-07T12:56:42.565Z,7.00
2018-08-07T12:59:12.674Z,6.43
2018-08-07T13:01:55.216Z,7.50
2018-08-07T13:04:27.199Z,6.57
2018-08-07T13:06:57.723Z,6.50
2018-08-07T13:09:26.063Z,5.90
2018-08-07T13:11:54.317Z,6.70
2018-08-07T13:14:22.828Z,5.87
2018-08-07T13:16:51.018Z,5.93
2018-08-07T13:19:19.209Z,6.13
2018-08-07T13:21:47.415Z,6.20
2018-08-07T13:24:15.595Z,5.87
2018-08-07T13:26:43.941Z,6.30
2018-08-07T13:29:12.154Z,6.80
2018-08-07T13:31:40.338Z,6.17
2018-08-07T13:34:08.626Z,6.43
2018-08-07T13:36:37.304Z,6.90
2018-08-07T13:39:12.017Z,6.57
2018-08-07T13:44:33.256Z,6.33
2018-08-07T13:47:03.249Z,7.80
2018-08-07T13:50:11.972Z,6.53
2018-08-07T13:52:46.590Z,7.00
2018-08-07T13:55:40.423Z,6.23
2018-08-07T13:58:19.400Z,6.43
2018-08-07T14:00:47.607Z,6.83
2018-08-07T14:03:15.811Z,6.97
2018-08-07T14:05:44.748Z,8.10
2018-08-07T14:08:12.983Z,7.07
2018-08-07T14:10:41.243Z,7.10
2018-08-07T14:13:09.449Z,6.73
2018-08-07T14:15:37.650Z,6.90
2018-08-07T14:18:12.878Z,6.53
2018-08-07T14:20:41.064Z,6.73
2018-08-07T14:24:03.807Z,7.00
2018-08-07T14:26:36.855Z,6.27
2018-08-07T14:29:05.858Z,6.37
2018-08-07T14:31:35.503Z,6.60
2018-08-07T14:34:09.292Z,6.37
2018-08-07T14:36:38.172Z,8.00
2018-08-07T14:39:10.532Z,6.50
2018-08-07T14:41:56.404Z,7.07
2018-08-07T14:44:45.650Z,6.50
2018-08-07T14:51:26.119Z,5.90
2018-08-07T14:56:47.041Z,6.20
2018-08-07T14:59:15.836Z,6.27
2018-08-07T15:01:48.073Z,6.13
2018-08-07T15:04:16.688Z,5.83
2018-08-07T15:06:44.938Z,6.87
2018-08-07T15:15:14.053Z,6.70
2018-08-07T15:17:44.199Z,6.77
2018-08-07T15:20:22.713Z,6.30
2018-08-07T15:22:51.648Z,6.10
2018-08-07T15:25:20.404Z,7.77
2018-08-07T15:27:48.701Z,6.20
2018-08-07T15:30:18.402Z,6.17
2018-08-07T15:32:47.158Z,5.80
2018-08-07T15:35:16.271Z,6.60
2018-08-07T15:37:44.849Z,5.83
2018-08-07T15:40:13.367Z,5.03
2018-08-07T15:42:42.343Z,5.50
2018-08-07T15:45:10.624Z,5.07
2018-08-07T15:47:38.755Z,5.43
2018-08-07T15:50:10.395Z,5.37
2018-08-07T15:52:38.992Z,5.20
2018-08-07T15:55:08.655Z,4.93
2018-08-07T15:57:37.797Z,6.03
2018-08-07T16:00:11.609Z,5.20
2018-08-07T16:05:31.589Z,5.10
2018-08-07T16:08:17.762Z,4.63
2018-08-07T16:10:51.444Z,4.03
2018-08-07T16:13:50.856Z,4.47
2018-08-07T16:36:27.260Z,4.77
2018-08-07T16:38:56.780Z,5.17
2018-08-07T16:44:23.842Z,5.13
2018-08-07T16:46:55.565Z,5.33
2018-08-07T16:49:27.080Z,5.10
2018-08-07T16:52:57.879Z,5.80
2018-08-07T16:55:34.497Z,4.90
2018-08-07T16:58:07.556Z,4.77
2018-08-07T17:03:09.610Z,4.57
2018-08-07T17:05:49.052Z,4.37
2018-08-07T17:11:09.858Z,5.97
2018-08-07T17:13:43.955Z,3.63
2018-08-07T17:16:23.039Z,3.80
2018-08-07T17:19:41.585Z,4.20
2018-08-07T17:22:21.953Z,4.30
2018-08-07T17:27:41.414Z,3.57
2018-08-07T17:30:14.709Z,3.80
2018-08-07T17:33:02.966Z,3.33
2018-08-07T17:35:35.910Z,3.33
2018-08-07T17:38:07.113Z,4.63
2018-08-07T17:40:38.426Z,5.37
2018-08-07T17:43:12.415Z,4.80
2018-08-07T17:45:43.786Z,3.97
2018-08-07T17:48:13.000Z,3.50
2018-08-07T17:50:41.357Z,4.20
2018-08-07T17:53:19.338Z,4.80
2018-08-07T17:55:52.134Z,3.73
2018-08-07T17:58:24.727Z,3.93
2018-08-07T18:01:02.175Z,4.97
2018-08-07T18:03:31.889Z,5.07
2018-08-07T18:06:01.112Z,4.17
2018-08-07T18:08:58.547Z,4.17
2018-08-07T18:11:30.612Z,3.97
2018-08-07T18:13:58.699Z,14.93
2018-08-07T18:16:26.805Z,9.67
2018-08-07T18:18:54.953Z,9.97
2018-08-07T18:21:23.081Z,6.90
2018-08-07T18:23:51.207Z,7.77
2018-08-07T18:26:19.334Z,6.77
2018-08-07T18:28:47.502Z,5.60
2018-08-07T18:31:15.597Z,9.43
2018-08-07T18:33:43.744Z,5.00
2018-08-07T18:36:12.302Z,9.67
2018-08-07T18:38:40.429Z,16.37
2018-08-07T18:41:08.761Z,23.00
2018-08-07T18:43:36.912Z,21.30
2018-08-07T18:46:04.998Z,15.27
2018-08-07T18:48:33.533Z,14.53
2018-08-07T18:51:01.661Z,12.47
2018-08-07T18:53:29.860Z,7.43
2018-08-07T18:55:58.081Z,10.50
2018-08-07T18:58:26.388Z,9.17
2018-08-07T19:00:54.511Z,7.13
2018-08-07T19:03:23.446Z,6.20
2018-08-07T19:05:51.779Z,5.87
2018-08-07T19:08:20.106Z,6.20
2018-08-07T19:10:48.354Z,6.20
2018-08-07T19:13:16.626Z,5.23
2018-08-07T19:15:44.816Z,4.40
2018-08-07T19:18:13.086Z,5.83
2018-08-07T19:20:41.360Z,5.43
2018-08-07T19:23:09.548Z,5.40
2018-08-07T19:25:37.642Z,4.97
2018-08-07T19:28:05.870Z,5.10
2018-08-07T19:30:33.939Z,6.40
2018-08-07T19:33:02.067Z,9.40
2018-08-07T19:35:30.196Z,11.10
2018-08-07T19:37:59.382Z,11.03
2018-08-07T19:40:27.825Z,9.13
2018-08-07T19:42:56.266Z,11.27
2018-08-07T19:45:24.481Z,11.30
2018-08-07T19:47:52.625Z,7.53
2018-08-07T19:50:22.123Z,6.77
2018-08-07T19:52:50.493Z,4.63
2018-08-07T19:55:20.044Z,6.37
2018-08-07T19:57:49.072Z,5.27
2018-08-07T20:00:23.740Z,10.70
2018-08-07T20:02:52.321Z,5.33
2018-08-07T20:05:20.878Z,7.60
2018-08-07T20:07:49.315Z,4.27
2018-08-07T20:10:18.347Z,3.97
2018-08-07T20:12:47.328Z,5.00
2018-08-07T20:15:23.275Z,5.63
2018-08-07T20:17:52.199Z,3.77
2018-08-07T20:20:20.471Z,3.40
2018-08-07T20:22:48.652Z,3.93
2018-08-07T20:25:17.001Z,3.50
2018-08-07T20:27:45.459Z,3.17
2018-08-07T20:30:17.627Z,3.73
2018-08-07T20:32:46.531Z,3.97
2018-08-07T20:35:14.794Z,3.93
2018-08-07T20:37:42.895Z,3.80
2018-08-07T20:40:14.085Z,4.37
2018-08-07T20:42:42.483Z,4.60
2018-08-07T20:45:10.564Z,4.37
2018-08-07T20:47:39.303Z,4.60
2018-08-07T20:50:11.493Z,4.57
2018-08-07T20:52:39.892Z,4.57
2018-08-07T20:55:08.174Z,4.70
2018-08-07T20:57:37.106Z,10.00
2018-08-07T21:00:06.411Z,9.10
2018-08-07T21:02:35.113Z,6.60
2018-08-07T21:05:03.233Z,5.50
2018-08-07T21:07:31.348Z,5.23
2018-08-07T21:09:59.431Z,6.03
2018-08-07T21:12:27.480Z,4.83
2018-08-07T21:14:55.566Z,5.23
2018-08-07T21:17:23.597Z,5.60
2018-08-07T21:19:51.722Z,5.53
2018-08-07T21:22:19.815Z,5.03
2018-08-07T21:24:47.819Z,4.93
2018-08-07T21:27:23.476Z,5.40
2018-08-07T21:29:51.797Z,9.50
2018-08-07T21:32:21.393Z,5.93
2018-08-07T21:34:53.349Z,5.37
2018-08-07T21:37:28.114Z,6.70
2018-08-07T21:39:58.196Z,5.20
2018-08-07T21:42:27.211Z,5.70
2018-08-07T21:44:56.839Z,5.73
2018-08-07T21:47:38.968Z,5.57
2018-08-07T21:50:16.643Z,5.87
2018-08-07T21:53:00.982Z,5.47
2018-08-07T21:55:31.573Z,5.70
2018-08-07T21:58:09.885Z,8.10
2018-08-07T22:00:48.677Z,5.60
2018-08-07T22:03:18.013Z,5.77
2018-08-07T22:05:46.337Z,5.97
2018-08-07T22:08:15.007Z,7.03
2018-08-07T22:10:43.146Z,6.00
2018-08-07T22:13:11.184Z,5.50
2018-08-07T22:15:39.571Z,6.00
2018-08-07T22:18:09.215Z,5.27
2018-08-07T22:20:37.400Z,5.30
2018-08-07T22:23:06.111Z,5.57
2018-08-07T22:25:34.187Z,8.90
2018-08-07T22:28:02.219Z,5.87
2018-08-07T22:30:30.277Z,5.90
2018-08-07T22:32:58.326Z,6.30
2018-08-07T22:35:26.399Z,6.83
2018-08-07T22:37:54.491Z,6.03
2018-08-07T22:40:22.571Z,6.10
2018-08-07T22:42:50.622Z,6.17
2018-08-07T22:45:19.066Z,6.97
2018-08-07T22:47:47.130Z,5.43
2018-08-07T22:50:16.486Z,5.87
2018-08-07T22:52:44.921Z,5.00
2018-08-07T22:55:14.492Z,5.30
2018-08-07T22:57:42.647Z,5.70
2018-08-07T23:00:17.205Z,6.00
2018-08-07T23:02:45.164Z,6.50
2018-08-07T23:05:13.987Z,5.70
2018-08-07T23:07:42.150Z,6.57
2018-08-07T23:10:12.246Z,5.97
2018-08-07T23:12:40.654Z,5.73
2018-08-07T23:15:10.296Z,5.03
2018-08-07T23:17:38.404Z,5.47
2018-08-07T23:20:06.990Z,4.63
2018-08-07T23:22:35.155Z,5.37
2018-08-07T23:25:03.435Z,5.27
2018-08-07T23:27:31.868Z,5.30
2018-08-07T23:29:59.910Z,5.10
2018-08-07T23:32:27.981Z,5.03
2018-08-07T23:34:56.042Z,5.10
2018-08-07T23:37:24.103Z,5.43
2018-08-07T23:39:52.164Z,4.70
2018-08-07T23:42:20.230Z,5.67
2018-08-07T23:44:48.521Z,5.30
2018-08-07T23:47:16.619Z,4.87
2018-08-07T23:49:44.684Z,4.10
2018-08-07T23:52:12.727Z,4.40
2018-08-07T23:54:40.798Z,4.73
2018-08-07T23:57:08.865Z,5.13
2018-08-07T23:59:37.048Z,4.73
